sensor_id;sensor_type;location;lat;lon;timestamp;P1;durP1;ratioP1;P2;durP2;ratioP2
19341;SDS011;9807;48.258;12.690;2023-07-28T00:01:23;3.57;;;3.03;;
19341;SDS011;9807;48.258;12.690;2023-07-28T00:03:49;5.83;;;3.03;;
19341;SDS011;9807;48.258;12.690;2023-07-28T00:06:15;3.33;;;2.87;;
19341;SDS011;9807;48.258;12.690;2023-07-28T00:08:41;6.57;;;3.37;;
19341;SDS011;9807;48.258;12.690;2023-07-28T00:11:10;3.47;;;2.50;;
19341;SDS011;9807;48.258;12.690;2023-07-28T00:13:41;5.27;;;2.80;;
19341;SDS011;9807;48.258;12.690;2023-07-28T00:16:07;4.20;;;2.40;;
19341;SDS011;9807;48.258;12.690;2023-07-28T00:18:34;2.87;;;2.40;;
19341;SDS011;9807;48.258;12.690;2023-07-28T00:21:00;3.83;;;2.77;;
19341;SDS011;9807;48.258;12.690;2023-07-28T00:23:25;4.37;;;2.93;;
19341;SDS011;9807;48.258;12.690;2023-07-28T00:25:51;5.13;;;2.63;;
19341;SDS011;9807;48.258;12.690;2023-07-28T00:28:16;2.40;;;2.20;;
19341;SDS011;9807;48.258;12.690;2023-07-28T00:30:42;2.80;;;2.30;;
19341;SDS011;9807;48.258;12.690;2023-07-28T00:33:08;3.20;;;1.90;;
19341;SDS011;9807;48.258;12.690;2023-07-28T00:35:34;2.10;;;1.77;;
19341;SDS011;9807;48.258;12.690;2023-07-28T00:37:59;4.23;;;2.50;;
19341;SDS011;9807;48.258;12.690;2023-07-28T00:40:26;3.93;;;2.30;;
19341;SDS011;9807;48.258;12.690;2023-07-28T00:42:52;2.67;;;2.43;;
19341;SDS011;9807;48.258;12.690;2023-07-28T00:45:17;2.50;;;2.00;;
19341;SDS011;9807;48.258;12.690;2023-07-28T00:47:43;2.27;;;2.03;;
19341;SDS011;9807;48.258;12.690;2023-07-28T00:50:10;3.67;;;2.00;;
19341;SDS011;9807;48.258;12.690;2023-07-28T00:52:37;2.40;;;2.07;;
19341;SDS011;9807;48.258;12.690;2023-07-28T00:55:03;2.13;;;1.93;;
19341;SDS011;9807;48.258;12.690;2023-07-28T00:57:30;3.37;;;2.13;;
19341;SDS011;9807;48.258;12.690;2023-07-28T00:59:56;3.47;;;1.90;;
19341;SDS011;9807;48.258;12.690;2023-07-28T01:02:22;2.70;;;1.73;;
19341;SDS011;9807;48.258;12.690;2023-07-28T01:04:48;3.20;;;2.00;;
19341;SDS011;9807;48.258;12.690;2023-07-28T01:07:26;3.33;;;2.07;;
19341;SDS011;9807;48.258;12.690;2023-07-28T01:10:08;2.77;;;2.07;;
19341;SDS011;9807;48.258;12.690;2023-07-28T01:12:37;3.43;;;1.90;;
19341;SDS011;9807;48.258;12.690;2023-07-28T01:15:03;2.20;;;2.00;;
19341;SDS011;9807;48.258;12.690;2023-07-28T01:17:29;2.87;;;1.80;;
19341;SDS011;9807;48.258;12.690;2023-07-28T01:19:55;3.43;;;2.00;;
19341;SDS011;9807;48.258;12.690;2023-07-28T01:25:36;3.17;;;2.10;;
19341;SDS011;9807;48.258;12.690;2023-07-28T01:28:05;3.07;;;2.23;;
19341;SDS011;9807;48.258;12.690;2023-07-28T01:30:31;3.30;;;2.30;;
19341;SDS011;9807;48.258;12.690;2023-07-28T01:32:57;2.60;;;2.33;;
19341;SDS011;9807;48.258;12.690;2023-07-28T01:35:23;2.27;;;2.07;;
19341;SDS011;9807;48.258;12.690;2023-07-28T01:37:51;5.47;;;2.83;;
19341;SDS011;9807;48.258;12.690;2023-07-28T01:40:17;4.57;;;2.63;;
19341;SDS011;9807;48.258;12.690;2023-07-28T01:42:43;2.90;;;2.60;;
19341;SDS011;9807;48.258;12.690;2023-07-28T01:45:09;6.30;;;3.50;;
19341;SDS011;9807;48.258;12.690;2023-07-28T01:47:34;4.27;;;2.70;;
19341;SDS011;9807;48.258;12.690;2023-07-28T01:50:00;2.80;;;1.93;;
19341;SDS011;9807;48.258;12.690;2023-07-28T01:52:26;2.20;;;2.00;;
19341;SDS011;9807;48.258;12.690;2023-07-28T01:54:52;2.07;;;1.87;;
19341;SDS011;9807;48.258;12.690;2023-07-28T01:57:18;2.80;;;2.20;;
19341;SDS011;9807;48.258;12.690;2023-07-28T01:59:43;2.10;;;1.90;;
19341;SDS011;9807;48.258;12.690;2023-07-28T02:02:09;2.80;;;2.23;;
19341;SDS011;9807;48.258;12.690;2023-07-28T02:04:35;2.40;;;2.20;;
19341;SDS011;9807;48.258;12.690;2023-07-28T02:07:00;2.30;;;2.10;;
19341;SDS011;9807;48.258;12.690;2023-07-28T02:09:26;5.03;;;3.27;;
19341;SDS011;9807;48.258;12.690;2023-07-28T02:11:52;4.80;;;3.40;;
19341;SDS011;9807;48.258;12.690;2023-07-28T02:14:17;3.60;;;2.63;;
19341;SDS011;9807;48.258;12.690;2023-07-28T02:16:43;2.73;;;2.43;;
19341;SDS011;9807;48.258;12.690;2023-07-28T02:19:09;4.60;;;2.47;;
19341;SDS011;9807;48.258;12.690;2023-07-28T02:21:35;2.83;;;2.40;;
19341;SDS011;9807;48.258;12.690;2023-07-28T02:24:00;2.93;;;2.00;;
19341;SDS011;9807;48.258;12.690;2023-07-28T02:26:26;3.87;;;2.43;;
19341;SDS011;9807;48.258;12.690;2023-07-28T02:28:52;4.03;;;2.00;;
19341;SDS011;9807;48.258;12.690;2023-07-28T02:31:18;3.67;;;2.23;;
19341;SDS011;9807;48.258;12.690;2023-07-28T02:33:44;3.13;;;2.30;;
19341;SDS011;9807;48.258;12.690;2023-07-28T02:36:10;4.00;;;2.43;;
19341;SDS011;9807;48.258;12.690;2023-07-28T02:38:35;2.87;;;2.10;;
19341;SDS011;9807;48.258;12.690;2023-07-28T02:41:01;3.33;;;2.07;;
19341;SDS011;9807;48.258;12.690;2023-07-28T02:43:28;2.83;;;2.10;;
19341;SDS011;9807;48.258;12.690;2023-07-28T02:45:55;2.43;;;2.20;;
19341;SDS011;9807;48.258;12.690;2023-07-28T02:48:21;3.50;;;2.10;;
19341;SDS011;9807;48.258;12.690;2023-07-28T02:50:48;4.10;;;2.37;;
19341;SDS011;9807;48.258;12.690;2023-07-28T02:53:18;2.73;;;2.10;;
19341;SDS011;9807;48.258;12.690;2023-07-28T02:55:45;5.33;;;2.20;;
19341;SDS011;9807;48.258;12.690;2023-07-28T02:58:12;3.10;;;2.50;;
19341;SDS011;9807;48.258;12.690;2023-07-28T03:00:39;2.60;;;2.10;;
19341;SDS011;9807;48.258;12.690;2023-07-28T03:03:06;2.80;;;2.17;;
19341;SDS011;9807;48.258;12.690;2023-07-28T03:05:35;6.70;;;2.20;;
19341;SDS011;9807;48.258;12.690;2023-07-28T03:08:05;2.37;;;2.10;;
19341;SDS011;9807;48.258;12.690;2023-07-28T03:10:31;5.63;;;3.20;;
19341;SDS011;9807;48.258;12.690;2023-07-28T03:12:58;8.63;;;3.20;;
19341;SDS011;9807;48.258;12.690;2023-07-28T03:15:23;7.70;;;2.87;;
19341;SDS011;9807;48.258;12.690;2023-07-28T03:17:49;3.83;;;2.63;;
19341;SDS011;9807;48.258;12.690;2023-07-28T03:20:16;2.23;;;2.00;;
19341;SDS011;9807;48.258;12.690;2023-07-28T03:22:42;2.30;;;2.10;;
19341;SDS011;9807;48.258;12.690;2023-07-28T03:25:08;3.47;;;2.23;;
19341;SDS011;9807;48.258;12.690;2023-07-28T03:27:34;2.93;;;2.33;;
19341;SDS011;9807;48.258;12.690;2023-07-28T03:30:00;5.27;;;2.60;;
19341;SDS011;9807;48.258;12.690;2023-07-28T03:32:26;4.37;;;2.80;;
19341;SDS011;9807;48.258;12.690;2023-07-28T03:34:52;6.37;;;3.30;;
19341;SDS011;9807;48.258;12.690;2023-07-28T03:37:18;2.57;;;2.30;;
19341;SDS011;9807;48.258;12.690;2023-07-28T03:39:44;2.60;;;2.03;;
19341;SDS011;9807;48.258;12.690;2023-07-28T03:42:10;2.83;;;2.00;;
19341;SDS011;9807;48.258;12.690;2023-07-28T03:44:36;2.43;;;2.20;;
19341;SDS011;9807;48.258;12.690;2023-07-28T03:47:08;2.43;;;2.10;;
19341;SDS011;9807;48.258;12.690;2023-07-28T03:49:34;2.87;;;2.00;;
19341;SDS011;9807;48.258;12.690;2023-07-28T03:51:59;5.57;;;2.17;;
19341;SDS011;9807;48.258;12.690;2023-07-28T03:54:25;2.30;;;2.03;;
19341;SDS011;9807;48.258;12.690;2023-07-28T03:56:51;2.47;;;2.27;;
19341;SDS011;9807;48.258;12.690;2023-07-28T03:59:16;6.00;;;2.50;;
19341;SDS011;9807;48.258;12.690;2023-07-28T04:01:42;4.00;;;3.10;;
19341;SDS011;9807;48.258;12.690;2023-07-28T04:04:08;7.67;;;3.13;;
19341;SDS011;9807;48.258;12.690;2023-07-28T04:06:44;3.97;;;2.17;;
19341;SDS011;9807;48.258;12.690;2023-07-28T04:09:12;2.37;;;2.13;;
19341;SDS011;9807;48.258;12.690;2023-07-28T04:11:39;2.77;;;2.30;;
19341;SDS011;9807;48.258;12.690;2023-07-28T04:14:06;3.67;;;2.53;;
19341;SDS011;9807;48.258;12.690;2023-07-28T04:16:32;2.77;;;2.30;;
19341;SDS011;9807;48.258;12.690;2023-07-28T04:18:58;3.47;;;2.33;;
19341;SDS011;9807;48.258;12.690;2023-07-28T04:21:24;4.83;;;2.40;;
19341;SDS011;9807;48.258;12.690;2023-07-28T04:23:53;4.33;;;2.50;;
19341;SDS011;9807;48.258;12.690;2023-07-28T04:26:18;2.70;;;2.07;;
19341;SDS011;9807;48.258;12.690;2023-07-28T04:28:44;3.70;;;2.30;;
19341;SDS011;9807;48.258;12.690;2023-07-28T04:31:10;4.23;;;2.60;;
19341;SDS011;9807;48.258;12.690;2023-07-28T04:33:36;4.00;;;2.70;;
19341;SDS011;9807;48.258;12.690;2023-07-28T04:36:06;3.33;;;2.20;;
19341;SDS011;9807;48.258;12.690;2023-07-28T04:38:32;3.53;;;2.57;;
19341;SDS011;9807;48.258;12.690;2023-07-28T04:40:57;2.57;;;2.27;;
19341;SDS011;9807;48.258;12.690;2023-07-28T04:43:23;4.23;;;2.73;;
19341;SDS011;9807;48.258;12.690;2023-07-28T04:45:49;2.60;;;2.40;;
19341;SDS011;9807;48.258;12.690;2023-07-28T04:48:15;3.63;;;2.50;;
19341;SDS011;9807;48.258;12.690;2023-07-28T04:50:41;2.83;;;2.30;;
19341;SDS011;9807;48.258;12.690;2023-07-28T04:53:06;2.80;;;2.33;;
19341;SDS011;9807;48.258;12.690;2023-07-28T04:55:32;2.30;;;2.10;;
19341;SDS011;9807;48.258;12.690;2023-07-28T04:57:58;2.97;;;2.20;;
19341;SDS011;9807;48.258;12.690;2023-07-28T05:00:23;6.83;;;3.50;;
19341;SDS011;9807;48.258;12.690;2023-07-28T05:02:49;3.70;;;3.20;;
19341;SDS011;9807;48.258;12.690;2023-07-28T05:05:15;4.23;;;2.97;;
19341;SDS011;9807;48.258;12.690;2023-07-28T05:07:41;4.47;;;3.37;;
19341;SDS011;9807;48.258;12.690;2023-07-28T05:10:07;3.90;;;2.83;;
19341;SDS011;9807;48.258;12.690;2023-07-28T05:12:32;8.07;;;3.87;;
19341;SDS011;9807;48.258;12.690;2023-07-28T05:14:58;5.27;;;3.30;;
19341;SDS011;9807;48.258;12.690;2023-07-28T05:17:24;4.70;;;3.87;;
19341;SDS011;9807;48.258;12.690;2023-07-28T05:19:50;8.53;;;4.30;;
19341;SDS011;9807;48.258;12.690;2023-07-28T05:22:18;5.93;;;3.93;;
19341;SDS011;9807;48.258;12.690;2023-07-28T05:24:44;4.70;;;3.00;;
19341;SDS011;9807;48.258;12.690;2023-07-28T05:27:10;4.27;;;2.97;;
19341;SDS011;9807;48.258;12.690;2023-07-28T05:29:36;3.53;;;2.50;;
19341;SDS011;9807;48.258;12.690;2023-07-28T05:32:02;2.60;;;2.40;;
19341;SDS011;9807;48.258;12.690;2023-07-28T05:34:29;5.07;;;3.93;;
19341;SDS011;9807;48.258;12.690;2023-07-28T05:36:54;11.13;;;5.20;;
19341;SDS011;9807;48.258;12.690;2023-07-28T05:39:20;6.70;;;4.57;;
19341;SDS011;9807;48.258;12.690;2023-07-28T05:41:46;7.40;;;4.53;;
19341;SDS011;9807;48.258;12.690;2023-07-28T05:44:12;6.00;;;4.50;;
19341;SDS011;9807;48.258;12.690;2023-07-28T05:46:37;6.23;;;4.20;;
19341;SDS011;9807;48.258;12.690;2023-07-28T05:49:03;5.43;;;4.40;;
19341;SDS011;9807;48.258;12.690;2023-07-28T05:51:29;7.83;;;4.37;;
19341;SDS011;9807;48.258;12.690;2023-07-28T05:53:55;10.10;;;5.00;;
19341;SDS011;9807;48.258;12.690;2023-07-28T05:56:21;7.00;;;4.77;;
19341;SDS011;9807;48.258;12.690;2023-07-28T05:58:47;8.23;;;4.50;;
19341;SDS011;9807;48.258;12.690;2023-07-28T06:01:13;8.83;;;4.97;;
19341;SDS011;9807;48.258;12.690;2023-07-28T06:03:39;8.97;;;4.73;;
19341;SDS011;9807;48.258;12.690;2023-07-28T06:06:05;8.00;;;4.77;;
19341;SDS011;9807;48.258;12.690;2023-07-28T06:08:30;8.97;;;4.23;;
19341;SDS011;9807;48.258;12.690;2023-07-28T06:10:56;9.00;;;5.03;;
19341;SDS011;9807;48.258;12.690;2023-07-28T06:13:22;7.67;;;5.40;;
19341;SDS011;9807;48.258;12.690;2023-07-28T06:15:47;8.57;;;5.07;;
19341;SDS011;9807;48.258;12.690;2023-07-28T06:18:13;12.40;;;4.90;;
19341;SDS011;9807;48.258;12.690;2023-07-28T06:20:42;8.23;;;5.40;;
19341;SDS011;9807;48.258;12.690;2023-07-28T06:23:08;8.57;;;5.60;;
19341;SDS011;9807;48.258;12.690;2023-07-28T06:25:34;10.43;;;6.30;;
19341;SDS011;9807;48.258;12.690;2023-07-28T06:28:00;12.13;;;6.67;;
19341;SDS011;9807;48.258;12.690;2023-07-28T06:30:26;12.87;;;6.10;;
19341;SDS011;9807;48.258;12.690;2023-07-28T06:32:52;10.90;;;5.60;;
19341;SDS011;9807;48.258;12.690;2023-07-28T06:35:17;10.07;;;4.90;;
19341;SDS011;9807;48.258;12.690;2023-07-28T06:37:43;12.53;;;5.60;;
19341;SDS011;9807;48.258;12.690;2023-07-28T06:40:09;11.27;;;5.70;;
19341;SDS011;9807;48.258;12.690;2023-07-28T06:42:35;8.07;;;5.07;;
19341;SDS011;9807;48.258;12.690;2023-07-28T06:45:04;8.77;;;4.70;;
19341;SDS011;9807;48.258;12.690;2023-07-28T06:47:30;7.73;;;4.80;;
19341;SDS011;9807;48.258;12.690;2023-07-28T06:49:56;7.47;;;4.30;;
19341;SDS011;9807;48.258;12.690;2023-07-28T06:52:21;6.33;;;4.27;;
19341;SDS011;9807;48.258;12.690;2023-07-28T06:54:47;11.57;;;4.33;;
19341;SDS011;9807;48.258;12.690;2023-07-28T06:57:14;7.10;;;4.13;;
19341;SDS011;9807;48.258;12.690;2023-07-28T06:59:41;5.13;;;4.00;;
19341;SDS011;9807;48.258;12.690;2023-07-28T07:02:07;5.53;;;4.17;;
19341;SDS011;9807;48.258;12.690;2023-07-28T07:04:33;5.50;;;4.30;;
19341;SDS011;9807;48.258;12.690;2023-07-28T07:06:58;8.73;;;3.87;;
19341;SDS011;9807;48.258;12.690;2023-07-28T07:09:24;7.00;;;4.20;;
19341;SDS011;9807;48.258;12.690;2023-07-28T07:11:50;4.60;;;3.90;;
19341;SDS011;9807;48.258;12.690;2023-07-28T07:14:16;6.37;;;3.87;;
19341;SDS011;9807;48.258;12.690;2023-07-28T07:16:41;5.10;;;3.80;;
19341;SDS011;9807;48.258;12.690;2023-07-28T07:19:07;4.40;;;3.50;;
19341;SDS011;9807;48.258;12.690;2023-07-28T07:21:36;5.10;;;4.03;;
19341;SDS011;9807;48.258;12.690;2023-07-28T07:24:02;5.70;;;3.97;;
19341;SDS011;9807;48.258;12.690;2023-07-28T07:26:29;6.87;;;4.00;;
19341;SDS011;9807;48.258;12.690;2023-07-28T07:28:56;10.23;;;3.90;;
19341;SDS011;9807;48.258;12.690;2023-07-28T07:31:22;7.40;;;4.07;;
19341;SDS011;9807;48.258;12.690;2023-07-28T07:33:48;4.67;;;3.90;;
19341;SDS011;9807;48.258;12.690;2023-07-28T07:36:14;6.33;;;3.60;;
19341;SDS011;9807;48.258;12.690;2023-07-28T07:38:41;4.00;;;3.60;;
19341;SDS011;9807;48.258;12.690;2023-07-28T07:41:07;7.80;;;3.87;;
19341;SDS011;9807;48.258;12.690;2023-07-28T07:43:35;9.50;;;3.80;;
19341;SDS011;9807;48.258;12.690;2023-07-28T07:46:01;7.27;;;3.47;;
19341;SDS011;9807;48.258;12.690;2023-07-28T07:48:27;4.50;;;3.60;;
19341;SDS011;9807;48.258;12.690;2023-07-28T07:50:52;5.60;;;3.40;;
19341;SDS011;9807;48.258;12.690;2023-07-28T07:53:18;9.60;;;3.40;;
19341;SDS011;9807;48.258;12.690;2023-07-28T07:55:44;3.93;;;3.17;;
19341;SDS011;9807;48.258;12.690;2023-07-28T07:58:09;6.37;;;3.50;;
19341;SDS011;9807;48.258;12.690;2023-07-28T08:00:36;6.20;;;3.23;;
19341;SDS011;9807;48.258;12.690;2023-07-28T08:03:03;7.10;;;3.23;;
19341;SDS011;9807;48.258;12.690;2023-07-28T08:05:30;9.10;;;3.10;;
19341;SDS011;9807;48.258;12.690;2023-07-28T08:07:55;8.47;;;3.00;;
19341;SDS011;9807;48.258;12.690;2023-07-28T08:10:21;6.23;;;2.73;;
19341;SDS011;9807;48.258;12.690;2023-07-28T08:12:47;5.67;;;3.20;;
19341;SDS011;9807;48.258;12.690;2023-07-28T08:15:13;6.60;;;2.90;;
19341;SDS011;9807;48.258;12.690;2023-07-28T08:17:39;5.03;;;2.97;;
19341;SDS011;9807;48.258;12.690;2023-07-28T08:20:08;7.93;;;2.90;;
19341;SDS011;9807;48.258;12.690;2023-07-28T08:22:34;5.80;;;2.97;;
19341;SDS011;9807;48.258;12.690;2023-07-28T08:25:00;3.63;;;2.90;;
19341;SDS011;9807;48.258;12.690;2023-07-28T08:27:26;7.63;;;3.10;;
19341;SDS011;9807;48.258;12.690;2023-07-28T08:29:51;4.50;;;2.83;;
19341;SDS011;9807;48.258;12.690;2023-07-28T08:32:17;3.03;;;2.73;;
19341;SDS011;9807;48.258;12.690;2023-07-28T08:34:42;3.70;;;2.60;;
19341;SDS011;9807;48.258;12.690;2023-07-28T08:37:08;5.13;;;2.97;;
19341;SDS011;9807;48.258;12.690;2023-07-28T08:39:34;3.37;;;2.87;;
19341;SDS011;9807;48.258;12.690;2023-07-28T08:42:00;2.90;;;2.60;;
19341;SDS011;9807;48.258;12.690;2023-07-28T08:44:29;6.33;;;2.80;;
19341;SDS011;9807;48.258;12.690;2023-07-28T08:46:57;3.53;;;2.80;;
19341;SDS011;9807;48.258;12.690;2023-07-28T08:49:22;3.97;;;3.07;;
19341;SDS011;9807;48.258;12.690;2023-07-28T08:51:49;4.10;;;2.77;;
19341;SDS011;9807;48.258;12.690;2023-07-28T08:54:15;3.40;;;2.80;;
19341;SDS011;9807;48.258;12.690;2023-07-28T08:56:44;3.07;;;2.40;;
19341;SDS011;9807;48.258;12.690;2023-07-28T08:59:10;6.53;;;2.77;;
19341;SDS011;9807;48.258;12.690;2023-07-28T09:01:39;3.53;;;2.60;;
19341;SDS011;9807;48.258;12.690;2023-07-28T09:04:09;4.90;;;2.90;;
19341;SDS011;9807;48.258;12.690;2023-07-28T09:06:35;3.17;;;2.70;;
19341;SDS011;9807;48.258;12.690;2023-07-28T09:09:01;3.83;;;2.70;;
19341;SDS011;9807;48.258;12.690;2023-07-28T09:11:31;4.63;;;2.77;;
19341;SDS011;9807;48.258;12.690;2023-07-28T09:13:59;4.00;;;2.83;;
19341;SDS011;9807;48.258;12.690;2023-07-28T09:16:25;3.40;;;2.73;;
19341;SDS011;9807;48.258;12.690;2023-07-28T09:19:03;5.40;;;2.90;;
19341;SDS011;9807;48.258;12.690;2023-07-28T09:21:33;3.40;;;2.87;;
19341;SDS011;9807;48.258;12.690;2023-07-28T09:23:59;3.90;;;2.87;;
19341;SDS011;9807;48.258;12.690;2023-07-28T09:26:38;4.00;;;2.90;;
19341;SDS011;9807;48.258;12.690;2023-07-28T09:29:12;3.83;;;2.83;;
19341;SDS011;9807;48.258;12.690;2023-07-28T09:31:46;3.53;;;3.10;;
19341;SDS011;9807;48.258;12.690;2023-07-28T09:34:13;2.93;;;2.63;;
19341;SDS011;9807;48.258;12.690;2023-07-28T09:36:55;4.70;;;3.20;;
19341;SDS011;9807;48.258;12.690;2023-07-28T09:39:22;6.80;;;3.00;;
19341;SDS011;9807;48.258;12.690;2023-07-28T09:41:48;9.10;;;3.10;;
19341;SDS011;9807;48.258;12.690;2023-07-28T09:44:17;5.83;;;3.00;;
19341;SDS011;9807;48.258;12.690;2023-07-28T09:49:16;5.93;;;2.90;;
19341;SDS011;9807;48.258;12.690;2023-07-28T09:51:47;5.07;;;3.17;;
19341;SDS011;9807;48.258;12.690;2023-07-28T09:54:27;8.67;;;3.17;;
19341;SDS011;9807;48.258;12.690;2023-07-28T09:56:58;8.00;;;3.30;;
19341;SDS011;9807;48.258;12.690;2023-07-28T09:59:28;3.63;;;2.60;;
19341;SDS011;9807;48.258;12.690;2023-07-28T10:02:00;4.00;;;2.93;;
19341;SDS011;9807;48.258;12.690;2023-07-28T10:04:27;6.43;;;3.10;;
19341;SDS011;9807;48.258;12.690;2023-07-28T10:06:54;4.57;;;2.80;;
19341;SDS011;9807;48.258;12.690;2023-07-28T10:09:28;4.37;;;3.00;;
19341;SDS011;9807;48.258;12.690;2023-07-28T10:11:55;10.13;;;3.37;;
19341;SDS011;9807;48.258;12.690;2023-07-28T10:14:27;3.97;;;2.77;;
19341;SDS011;9807;48.258;12.690;2023-07-28T10:16:55;4.03;;;3.20;;
19341;SDS011;9807;48.258;12.690;2023-07-28T10:19:25;4.63;;;3.20;;
19341;SDS011;9807;48.258;12.690;2023-07-28T10:22:00;3.37;;;2.73;;
19341;SDS011;9807;48.258;12.690;2023-07-28T10:30:11;4.87;;;3.10;;
19341;SDS011;9807;48.258;12.690;2023-07-28T10:32:47;4.70;;;3.30;;
19341;SDS011;9807;48.258;12.690;2023-07-28T10:37:47;4.30;;;2.77;;
19341;SDS011;9807;48.258;12.690;2023-07-28T10:43:00;3.10;;;2.80;;
19341;SDS011;9807;48.258;12.690;2023-07-28T10:45:38;4.07;;;2.80;;
19341;SDS011;9807;48.258;12.690;2023-07-28T10:48:03;4.20;;;3.00;;
19341;SDS011;9807;48.258;12.690;2023-07-28T10:50:32;5.10;;;2.70;;
19341;SDS011;9807;48.258;12.690;2023-07-28T10:52:59;4.17;;;2.73;;
19341;SDS011;9807;48.258;12.690;2023-07-28T10:55:25;3.30;;;2.60;;
19341;SDS011;9807;48.258;12.690;2023-07-28T10:57:52;3.73;;;2.80;;
19341;SDS011;9807;48.258;12.690;2023-07-28T11:00:19;3.00;;;2.70;;
19341;SDS011;9807;48.258;12.690;2023-07-28T11:02:50;7.57;;;3.00;;
19341;SDS011;9807;48.258;12.690;2023-07-28T11:05:22;4.43;;;2.77;;
19341;SDS011;9807;48.258;12.690;2023-07-28T11:07:50;3.03;;;2.60;;
19341;SDS011;9807;48.258;12.690;2023-07-28T11:10:19;3.37;;;2.83;;
19341;SDS011;9807;48.258;12.690;2023-07-28T11:12:46;4.60;;;2.80;;
19341;SDS011;9807;48.258;12.690;2023-07-28T11:15:14;7.37;;;3.00;;
19341;SDS011;9807;48.258;12.690;2023-07-28T11:17:49;3.27;;;2.90;;
19341;SDS011;9807;48.258;12.690;2023-07-28T11:23:07;4.30;;;3.10;;
19341;SDS011;9807;48.258;12.690;2023-07-28T11:25:32;6.47;;;3.13;;
19341;SDS011;9807;48.258;12.690;2023-07-28T11:28:02;6.33;;;3.27;;
19341;SDS011;9807;48.258;12.690;2023-07-28T11:30:30;4.53;;;3.50;;
19341;SDS011;9807;48.258;12.690;2023-07-28T11:32:57;3.07;;;2.67;;
19341;SDS011;9807;48.258;12.690;2023-07-28T11:35:23;18.60;;;3.20;;
19341;SDS011;9807;48.258;12.690;2023-07-28T11:37:50;5.07;;;3.00;;
19341;SDS011;9807;48.258;12.690;2023-07-28T11:40:18;5.43;;;3.50;;
19341;SDS011;9807;48.258;12.690;2023-07-28T11:42:47;4.73;;;2.73;;
19341;SDS011;9807;48.258;12.690;2023-07-28T11:45:15;4.83;;;3.10;;
19341;SDS011;9807;48.258;12.690;2023-07-28T11:47:56;3.00;;;2.70;;
19341;SDS011;9807;48.258;12.690;2023-07-28T11:50:22;5.27;;;3.20;;
19341;SDS011;9807;48.258;12.690;2023-07-28T11:52:49;4.00;;;2.97;;
19341;SDS011;9807;48.258;12.690;2023-07-28T11:55:16;5.90;;;3.20;;
19341;SDS011;9807;48.258;12.690;2023-07-28T11:57:42;4.57;;;3.17;;
19341;SDS011;9807;48.258;12.690;2023-07-28T12:00:08;3.53;;;3.20;;
19341;SDS011;9807;48.258;12.690;2023-07-28T12:02:35;3.80;;;3.00;;
19341;SDS011;9807;48.258;12.690;2023-07-28T12:05:00;3.77;;;3.13;;
19341;SDS011;9807;48.258;12.690;2023-07-28T12:07:30;3.37;;;2.83;;
19341;SDS011;9807;48.258;12.690;2023-07-28T12:09:56;4.27;;;3.30;;
19341;SDS011;9807;48.258;12.690;2023-07-28T12:12:28;4.50;;;3.23;;
19341;SDS011;9807;48.258;12.690;2023-07-28T12:14:58;4.33;;;3.17;;
19341;SDS011;9807;48.258;12.690;2023-07-28T12:17:29;4.37;;;3.10;;
19341;SDS011;9807;48.258;12.690;2023-07-28T12:22:25;3.77;;;3.03;;
19341;SDS011;9807;48.258;12.690;2023-07-28T12:24:52;6.67;;;3.20;;
19341;SDS011;9807;48.258;12.690;2023-07-28T12:27:18;4.53;;;2.87;;
19341;SDS011;9807;48.258;12.690;2023-07-28T12:29:48;6.70;;;3.70;;
19341;SDS011;9807;48.258;12.690;2023-07-28T12:32:14;7.90;;;3.10;;
19341;SDS011;9807;48.258;12.690;2023-07-28T12:34:40;5.73;;;2.97;;
19341;SDS011;9807;48.258;12.690;2023-07-28T12:37:07;4.70;;;2.73;;
19341;SDS011;9807;48.258;12.690;2023-07-28T12:39:33;4.37;;;2.83;;
19341;SDS011;9807;48.258;12.690;2023-07-28T12:42:04;5.40;;;3.00;;
19341;SDS011;9807;48.258;12.690;2023-07-28T12:44:34;6.27;;;2.80;;
19341;SDS011;9807;48.258;12.690;2023-07-28T12:47:00;3.73;;;2.80;;
19341;SDS011;9807;48.258;12.690;2023-07-28T12:49:26;5.60;;;3.27;;
19341;SDS011;9807;48.258;12.690;2023-07-28T12:51:54;4.07;;;3.20;;
19341;SDS011;9807;48.258;12.690;2023-07-28T12:54:21;3.30;;;2.90;;
19341;SDS011;9807;48.258;12.690;2023-07-28T12:56:47;3.67;;;2.80;;
19341;SDS011;9807;48.258;12.690;2023-07-28T12:59:13;5.37;;;3.00;;
19341;SDS011;9807;48.258;12.690;2023-07-28T13:01:39;3.23;;;2.93;;
19341;SDS011;9807;48.258;12.690;2023-07-28T13:04:06;5.27;;;3.00;;
19341;SDS011;9807;48.258;12.690;2023-07-28T13:06:32;5.10;;;3.00;;
19341;SDS011;9807;48.258;12.690;2023-07-28T13:08:58;3.43;;;2.90;;
19341;SDS011;9807;48.258;12.690;2023-07-28T13:11:24;4.00;;;2.90;;
19341;SDS011;9807;48.258;12.690;2023-07-28T13:13:50;6.30;;;3.10;;
19341;SDS011;9807;48.258;12.690;2023-07-28T13:16:16;3.70;;;3.03;;
19341;SDS011;9807;48.258;12.690;2023-07-28T13:18:42;4.73;;;3.23;;
19341;SDS011;9807;48.258;12.690;2023-07-28T13:21:08;4.23;;;3.13;;
19341;SDS011;9807;48.258;12.690;2023-07-28T13:23:38;4.40;;;2.90;;
19341;SDS011;9807;48.258;12.690;2023-07-28T13:26:04;6.80;;;3.50;;
19341;SDS011;9807;48.258;12.690;2023-07-28T13:28:30;3.60;;;2.77;;
19341;SDS011;9807;48.258;12.690;2023-07-28T13:30:56;4.33;;;3.37;;
19341;SDS011;9807;48.258;12.690;2023-07-28T13:33:21;7.57;;;3.17;;
19341;SDS011;9807;48.258;12.690;2023-07-28T13:35:50;3.87;;;3.10;;
19341;SDS011;9807;48.258;12.690;2023-07-28T13:38:16;5.27;;;3.20;;
19341;SDS011;9807;48.258;12.690;2023-07-28T13:40:42;3.43;;;3.13;;
19341;SDS011;9807;48.258;12.690;2023-07-28T13:43:07;6.50;;;3.10;;
19341;SDS011;9807;48.258;12.690;2023-07-28T13:45:33;4.00;;;3.03;;
19341;SDS011;9807;48.258;12.690;2023-07-28T13:47:59;6.20;;;3.23;;
19341;SDS011;9807;48.258;12.690;2023-07-28T13:50:24;3.63;;;2.60;;
19341;SDS011;9807;48.258;12.690;2023-07-28T13:52:50;5.00;;;3.20;;
19341;SDS011;9807;48.258;12.690;2023-07-28T13:55:16;6.57;;;3.00;;
19341;SDS011;9807;48.258;12.690;2023-07-28T13:57:42;3.80;;;3.03;;
19341;SDS011;9807;48.258;12.690;2023-07-28T14:00:08;4.53;;;3.17;;
19341;SDS011;9807;48.258;12.690;2023-07-28T14:02:38;4.57;;;2.97;;
19341;SDS011;9807;48.258;12.690;2023-07-28T14:05:04;4.50;;;2.93;;
19341;SDS011;9807;48.258;12.690;2023-07-28T14:07:31;4.63;;;2.83;;
19341;SDS011;9807;48.258;12.690;2023-07-28T14:09:58;3.17;;;2.77;;
19341;SDS011;9807;48.258;12.690;2023-07-28T14:12:24;5.30;;;3.27;;
19341;SDS011;9807;48.258;12.690;2023-07-28T14:14:50;3.20;;;2.90;;
19341;SDS011;9807;48.258;12.690;2023-07-28T14:17:16;4.70;;;3.03;;
19341;SDS011;9807;48.258;12.690;2023-07-28T14:19:42;5.27;;;3.03;;
19341;SDS011;9807;48.258;12.690;2023-07-28T14:22:08;5.30;;;3.20;;
19341;SDS011;9807;48.258;12.690;2023-07-28T14:24:34;3.30;;;3.00;;
19341;SDS011;9807;48.258;12.690;2023-07-28T14:27:00;11.50;;;3.10;;
19341;SDS011;9807;48.258;12.690;2023-07-28T14:29:26;4.30;;;3.03;;
19341;SDS011;9807;48.258;12.690;2023-07-28T14:31:52;4.53;;;3.10;;
19341;SDS011;9807;48.258;12.690;2023-07-28T14:34:17;5.07;;;3.20;;
19341;SDS011;9807;48.258;12.690;2023-07-28T14:36:43;3.37;;;3.03;;
19341;SDS011;9807;48.258;12.690;2023-07-28T14:39:09;5.37;;;3.10;;
19341;SDS011;9807;48.258;12.690;2023-07-28T14:41:35;3.50;;;3.00;;
19341;SDS011;9807;48.258;12.690;2023-07-28T14:44:01;6.97;;;2.90;;
19341;SDS011;9807;48.258;12.690;2023-07-28T14:46:26;3.93;;;3.10;;
19341;SDS011;9807;48.258;12.690;2023-07-28T14:48:52;5.83;;;3.10;;
19341;SDS011;9807;48.258;12.690;2023-07-28T14:51:19;3.87;;;2.90;;
19341;SDS011;9807;48.258;12.690;2023-07-28T14:53:47;4.23;;;3.20;;
19341;SDS011;9807;48.258;12.690;2023-07-28T14:56:14;4.13;;;3.07;;
19341;SDS011;9807;48.258;12.690;2023-07-28T14:58:40;4.17;;;3.20;;
19341;SDS011;9807;48.258;12.690;2023-07-28T15:01:06;4.77;;;3.20;;
19341;SDS011;9807;48.258;12.690;2023-07-28T15:03:33;5.63;;;2.93;;
19341;SDS011;9807;48.258;12.690;2023-07-28T15:05:59;3.17;;;2.90;;
19341;SDS011;9807;48.258;12.690;2023-07-28T15:08:26;3.37;;;3.00;;